createdAt,value
2022-10-14T00:01:52.470Z,12.10
2022-10-14T00:05:59.208Z,12.10
2022-10-14T00:10:06.720Z,12.10
2022-10-14T00:14:17.276Z,12.10
2022-10-14T00:18:23.974Z,12.00
2022-10-14T00:22:30.744Z,11.90
2022-10-14T00:26:38.777Z,11.90
2022-10-14T00:31:00.027Z,11.80
2022-10-14T00:35:06.983Z,11.90
2022-10-14T00:39:13.695Z,11.80
2022-10-14T00:43:21.758Z,11.80
2022-10-14T00:47:29.645Z,11.70
2022-10-14T00:51:38.886Z,11.70
2022-10-14T00:55:46.446Z,11.80
2022-10-14T00:59:58.757Z,11.70
2022-10-14T01:04:05.458Z,11.70
2022-10-14T01:08:27.604Z,11.60
2022-10-14T01:13:12.121Z,11.60
2022-10-14T01:17:27.820Z,11.50
2022-10-14T01:21:46.754Z,11.40
2022-10-14T01:26:01.249Z,11.40
2022-10-14T01:30:20.871Z,11.50
2022-10-14T01:34:33.749Z,11.40
2022-10-14T01:38:49.482Z,11.50
2022-10-14T01:42:59.543Z,11.50
2022-10-14T01:47:07.874Z,11.40
2022-10-14T01:51:27.650Z,11.40
2022-10-14T01:55:38.131Z,11.40
2022-10-14T01:59:46.840Z,11.40
2022-10-14T02:03:53.915Z,11.40
2022-10-14T02:08:47.645Z,11.40
2022-10-14T02:13:12.034Z,11.40
2022-10-14T02:17:25.572Z,11.30
2022-10-14T02:21:43.588Z,11.30
2022-10-14T02:25:50.894Z,11.30
2022-10-14T02:29:59.749Z,11.30
2022-10-14T02:34:11.682Z,11.30
2022-10-14T02:38:20.257Z,11.30
2022-10-14T02:42:29.025Z,11.30
2022-10-14T02:46:38.814Z,11.30
2022-10-14T02:50:45.461Z,11.30
2022-10-14T02:54:52.164Z,11.30
2022-10-14T02:58:58.855Z,11.30
2022-10-14T03:03:05.658Z,11.30
2022-10-14T03:07:12.447Z,11.30
2022-10-14T03:11:19.248Z,11.30
2022-10-14T03:15:25.945Z,11.20
2022-10-14T03:19:32.576Z,11.20
2022-10-14T03:23:39.238Z,11.10
2022-10-14T03:27:45.879Z,11.00
2022-10-14T03:31:52.596Z,11.00
2022-10-14T03:35:59.284Z,11.10
2022-10-14T03:40:06.519Z,11.00
2022-10-14T03:44:13.297Z,11.10
2022-10-14T03:48:20.088Z,11.10
2022-10-14T03:52:26.885Z,11.10
2022-10-14T03:56:33.718Z,11.10
2022-10-14T04:00:40.404Z,11.10
2022-10-14T04:04:47.156Z,11.10
2022-10-14T04:08:53.817Z,11.20
2022-10-14T04:13:00.487Z,11.20
2022-10-14T04:17:07.153Z,11.20
2022-10-14T04:21:13.892Z,11.30
2022-10-14T04:25:20.637Z,11.30
2022-10-14T04:29:27.322Z,11.30
2022-10-14T04:33:35.046Z,11.30
2022-10-14T04:37:41.724Z,11.40
2022-10-14T04:41:48.420Z,11.40
2022-10-14T04:45:55.126Z,11.40
2022-10-14T04:50:01.970Z,11.40
2022-10-14T04:54:09.009Z,11.40
2022-10-14T04:58:16.909Z,11.30
2022-10-14T05:02:23.927Z,11.40
2022-10-14T05:06:30.810Z,11.40
2022-10-14T05:10:37.647Z,11.40
2022-10-14T05:14:44.334Z,11.40
2022-10-14T05:18:51.276Z,11.40
2022-10-14T05:22:57.953Z,11.40
2022-10-14T05:27:04.750Z,11.40
2022-10-14T05:31:11.600Z,11.40
2022-10-14T05:35:33.965Z,11.40
2022-10-14T05:39:44.915Z,11.40
2022-10-14T05:43:51.666Z,11.50
2022-10-14T05:47:58.321Z,11.50
2022-10-14T05:52:05.228Z,11.50
2022-10-14T05:56:11.891Z,11.50
2022-10-14T06:00:24.647Z,11.60
2022-10-14T06:04:32.366Z,11.70
2022-10-14T06:08:39.945Z,11.70
2022-10-14T06:12:46.628Z,11.70
2022-10-14T06:16:53.411Z,11.70
2022-10-14T06:21:00.765Z,11.80
2022-10-14T06:25:07.901Z,11.80
2022-10-14T06:29:15.276Z,11.80
2022-10-14T06:33:22.694Z,11.90
2022-10-14T06:37:29.424Z,11.90
2022-10-14T06:41:36.057Z,12.00
2022-10-14T06:45:42.711Z,12.00
2022-10-14T06:49:49.392Z,12.10
2022-10-14T06:53:56.091Z,12.00
2022-10-14T06:58:02.749Z,12.10
2022-10-14T07:02:10.462Z,12.20
2022-10-14T07:06:17.139Z,12.20
2022-10-14T07:10:23.847Z,12.30
2022-10-14T07:14:30.560Z,12.40
2022-10-14T07:18:37.199Z,12.40
2022-10-14T07:22:44.092Z,12.50
2022-10-14T07:26:50.920Z,12.50
2022-10-14T07:30:59.572Z,12.60
2022-10-14T07:35:06.617Z,12.60
2022-10-14T07:39:13.821Z,12.70
2022-10-14T07:43:20.500Z,12.80
2022-10-14T07:47:28.228Z,12.90
2022-10-14T07:51:36.024Z,13.10
2022-10-14T07:55:52.367Z,13.20
2022-10-14T07:59:59.297Z,13.40
2022-10-14T08:04:06.540Z,13.40
2022-10-14T08:08:14.030Z,13.50
2022-10-14T08:12:21.505Z,13.50
2022-10-14T08:16:32.978Z,13.60
2022-10-14T08:20:39.945Z,13.70
2022-10-14T08:24:46.992Z,13.80
2022-10-14T08:28:54.019Z,13.80
2022-10-14T08:33:00.914Z,13.90
2022-10-14T08:37:09.072Z,14.00
2022-10-14T08:41:30.491Z,14.00
2022-10-14T08:45:49.740Z,14.10
2022-10-14T08:50:23.736Z,14.30
2022-10-14T08:54:40.316Z,14.30
2022-10-14T08:58:50.515Z,14.40
2022-10-14T09:02:59.589Z,14.40
2022-10-14T09:07:06.731Z,14.40
2022-10-14T09:11:20.346Z,14.50
2022-10-14T09:15:53.427Z,14.40
2022-10-14T09:20:25.380Z,14.40
2022-10-14T09:24:37.491Z,14.40
2022-10-14T09:28:44.631Z,14.40
2022-10-14T09:32:54.529Z,14.40
2022-10-14T09:37:16.535Z,14.50
2022-10-14T09:41:31.921Z,14.60
2022-10-14T09:46:10.929Z,14.70
2022-10-14T09:50:24.771Z,14.90
2022-10-14T09:54:33.033Z,15.00
2022-10-14T09:58:46.315Z,15.00
2022-10-14T10:02:55.193Z,15.00
2022-10-14T10:07:07.310Z,15.10
2022-10-14T10:11:14.127Z,15.10
2022-10-14T10:15:21.753Z,15.20
2022-10-14T10:19:32.524Z,15.30
2022-10-14T10:23:50.964Z,15.20
2022-10-14T10:27:59.116Z,15.20
2022-10-14T10:32:42.537Z,15.10
2022-10-14T10:37:04.364Z,15.10
2022-10-14T10:41:25.838Z,15.10
2022-10-14T10:46:05.107Z,15.10
2022-10-14T10:50:30.114Z,15.20
2022-10-14T10:55:03.644Z,15.20
2022-10-14T10:59:31.588Z,15.30
2022-10-14T11:04:04.236Z,15.70
2022-10-14T11:09:01.090Z,15.50
2022-10-14T11:13:33.135Z,15.60
2022-10-14T11:17:47.470Z,15.60
2022-10-14T11:22:39.082Z,15.50
2022-10-14T11:27:04.361Z,15.50
2022-10-14T11:31:26.790Z,15.50
2022-10-14T11:35:48.481Z,15.50
2022-10-14T11:40:05.079Z,15.50
2022-10-14T11:44:22.617Z,15.70
2022-10-14T11:49:04.020Z,15.70
2022-10-14T11:53:18.703Z,15.70
2022-10-14T11:57:32.734Z,15.70
2022-10-14T12:01:44.040Z,15.70
2022-10-14T12:06:04.080Z,15.70
2022-10-14T12:10:23.470Z,15.70
2022-10-14T12:14:34.930Z,15.70
2022-10-14T12:18:44.395Z,15.70
2022-10-14T12:22:53.153Z,15.70
2022-10-14T12:27:05.565Z,15.60
2022-10-14T12:31:21.493Z,15.70
2022-10-14T12:35:51.863Z,15.70
2022-10-14T12:40:07.080Z,15.70
2022-10-14T12:44:18.814Z,15.70
2022-10-14T12:48:29.683Z,15.70
2022-10-14T12:52:39.926Z,15.80
2022-10-14T12:57:05.802Z,15.70
2022-10-14T13:01:17.478Z,15.70
2022-10-14T13:05:37.374Z,15.80
2022-10-14T13:09:48.002Z,15.80
2022-10-14T13:14:02.127Z,15.80
2022-10-14T13:18:31.085Z,15.80
2022-10-14T13:22:39.399Z,15.80
2022-10-14T13:26:55.170Z,15.80
2022-10-14T13:31:38.434Z,15.70
2022-10-14T13:35:56.420Z,15.80
2022-10-14T13:40:34.750Z,15.80
2022-10-14T13:44:43.294Z,15.80
2022-10-14T13:48:57.318Z,15.80
2022-10-14T13:53:10.385Z,15.80
2022-10-14T13:58:00.161Z,15.80
2022-10-14T14:01:44.626Z,15.90
2022-10-14T14:05:52.466Z,15.80
2022-10-14T14:10:05.560Z,15.80
2022-10-14T14:14:27.796Z,15.80
2022-10-14T14:18:56.061Z,15.80
2022-10-14T14:23:03.986Z,15.70
2022-10-14T14:27:16.551Z,15.70
2022-10-14T14:31:33.656Z,15.60
2022-10-14T14:35:54.503Z,15.60
2022-10-14T14:40:17.191Z,15.60
2022-10-14T14:44:27.164Z,15.70
2022-10-14T14:48:35.245Z,15.60
2022-10-14T14:52:42.977Z,15.70
2022-10-14T14:56:56.207Z,15.70
2022-10-14T15:01:03.429Z,15.60
2022-10-14T15:05:11.614Z,15.60
2022-10-14T15:09:23.413Z,15.60
2022-10-14T15:13:38.509Z,15.70
2022-10-14T15:17:46.027Z,15.70
2022-10-14T15:22:24.164Z,15.70
2022-10-14T15:26:38.041Z,15.70
2022-10-14T15:30:44.660Z,15.50
2022-10-14T15:34:58.650Z,15.50
2022-10-14T15:39:05.337Z,15.50
2022-10-14T15:43:18.178Z,15.50
2022-10-14T15:47:25.441Z,15.50
2022-10-14T15:51:32.148Z,15.50
2022-10-14T15:55:39.325Z,15.60
2022-10-14T15:59:46.148Z,15.60
2022-10-14T16:03:52.794Z,15.50
2022-10-14T16:07:59.483Z,15.40
2022-10-14T16:12:12.522Z,15.30
2022-10-14T16:16:31.168Z,15.40
2022-10-14T16:20:38.425Z,15.30
2022-10-14T16:24:45.678Z,15.20
2022-10-14T16:28:52.880Z,15.10
2022-10-14T16:32:59.683Z,15.10
2022-10-14T16:37:07.171Z,15.00
2022-10-14T16:41:13.920Z,15.00
2022-10-14T16:45:20.585Z,15.00
2022-10-14T16:49:27.317Z,14.90
2022-10-14T16:53:48.684Z,14.90
2022-10-14T16:57:55.357Z,14.80
2022-10-14T17:02:02.756Z,14.80
2022-10-14T17:06:09.394Z,14.80
2022-10-14T17:10:16.738Z,14.70
2022-10-14T17:14:24.257Z,14.70
2022-10-14T17:18:34.729Z,14.70
2022-10-14T17:22:42.921Z,14.70
2022-10-14T17:26:49.620Z,14.70
2022-10-14T17:30:57.449Z,14.70
2022-10-14T17:35:04.572Z,14.70
2022-10-14T17:39:18.697Z,14.70
2022-10-14T17:43:30.995Z,14.60
2022-10-14T17:47:37.669Z,14.60
2022-10-14T17:51:44.886Z,14.60
2022-10-14T17:55:54.036Z,14.50
2022-10-14T18:00:04.546Z,14.50
2022-10-14T18:04:11.572Z,14.50
2022-10-14T18:08:18.322Z,14.50
2022-10-14T18:12:24.999Z,14.40
2022-10-14T18:16:35.209Z,14.40
2022-10-14T18:20:41.841Z,14.40
2022-10-14T18:24:48.503Z,14.40
2022-10-14T18:28:56.657Z,14.40
2022-10-14T18:33:03.421Z,14.30
2022-10-14T18:37:10.398Z,14.30
2022-10-14T18:41:17.392Z,14.20
2022-10-14T18:45:24.034Z,14.20
2022-10-14T18:49:30.773Z,14.10
2022-10-14T18:53:39.124Z,14.10
2022-10-14T18:57:46.094Z,14.10
2022-10-14T19:01:54.032Z,14.10
2022-10-14T19:06:01.816Z,14.10
2022-10-14T19:10:08.955Z,14.00
2022-10-14T19:14:15.863Z,14.00
2022-10-14T19:18:22.524Z,14.00
2022-10-14T19:22:29.312Z,14.00
2022-10-14T19:26:39.623Z,13.90
2022-10-14T19:30:46.322Z,13.90
2022-10-14T19:34:52.953Z,13.90
2022-10-14T19:39:00.212Z,13.90
2022-10-14T19:43:06.861Z,13.80
2022-10-14T19:47:13.552Z,13.80
2022-10-14T19:51:21.141Z,13.70
2022-10-14T19:55:27.809Z,13.70
2022-10-14T19:59:34.461Z,13.70
2022-10-14T20:03:42.173Z,13.60
2022-10-14T20:07:48.865Z,13.60
2022-10-14T20:11:55.565Z,13.60
2022-10-14T20:16:03.512Z,13.50
2022-10-14T20:20:10.560Z,13.50
2022-10-14T20:24:17.266Z,13.40
2022-10-14T20:28:24.006Z,13.30
2022-10-14T20:32:30.688Z,13.30
2022-10-14T20:36:37.375Z,13.30
2022-10-14T20:40:44.048Z,13.20
2022-10-14T20:44:51.177Z,13.20
2022-10-14T20:48:58.108Z,13.10
2022-10-14T20:53:05.423Z,13.10
2022-10-14T20:57:12.146Z,13.00
2022-10-14T21:01:18.831Z,13.00
2022-10-14T21:05:25.646Z,13.00
2022-10-14T21:09:32.295Z,13.00
2022-10-14T21:13:39.800Z,12.90
2022-10-14T21:17:50.105Z,12.90
2022-10-14T21:21:56.852Z,12.90
2022-10-14T21:26:03.574Z,12.70
2022-10-14T21:30:10.961Z,12.60
2022-10-14T21:34:17.661Z,12.50
2022-10-14T21:38:24.381Z,12.50
2022-10-14T21:42:31.062Z,12.50
2022-10-14T21:46:37.692Z,12.50
2022-10-14T21:50:44.338Z,12.50
2022-10-14T21:54:50.998Z,12.50
2022-10-14T21:58:58.272Z,12.50
2022-10-14T22:03:04.938Z,12.50
2022-10-14T22:07:11.602Z,12.60
2022-10-14T22:11:21.549Z,12.60
2022-10-14T22:15:28.198Z,12.60
2022-10-14T22:19:34.848Z,12.60
2022-10-14T22:23:41.777Z,12.50
2022-10-14T22:27:48.416Z,12.30
2022-10-14T22:31:55.064Z,12.10
2022-10-14T22:36:21.033Z,12.10
2022-10-14T22:40:30.381Z,12.10
2022-10-14T22:44:37.066Z,12.10
2022-10-14T22:48:43.734Z,12.10
2022-10-14T22:52:50.387Z,12.00
2022-10-14T22:56:57.031Z,12.00
2022-10-14T23:01:10.969Z,12.00
2022-10-14T23:05:17.628Z,12.00
2022-10-14T23:09:24.616Z,11.90
2022-10-14T23:13:31.736Z,12.00
2022-10-14T23:17:38.398Z,12.00
2022-10-14T23:21:45.185Z,12.00
2022-10-14T23:25:51.835Z,12.00
2022-10-14T23:29:58.556Z,12.00
2022-10-14T23:34:09.888Z,12.00
2022-10-14T23:38:16.531Z,12.00
2022-10-14T23:42:23.208Z,11.90
2022-10-14T23:46:29.950Z,11.90
2022-10-14T23:50:36.674Z,11.90
2022-10-14T23:54:43.402Z,12.00
2022-10-14T23:58:50.172Z,11.90
